createdAt,value
2019-01-04T00:00:53.123Z,63.31
2019-01-04T00:03:40.367Z,62.91
2019-01-04T00:06:27.509Z,63.03
2019-01-04T00:09:14.771Z,62.80
2019-01-04T00:12:02.550Z,63.21
2019-01-04T00:14:49.929Z,63.19
2019-01-04T00:17:37.500Z,62.84
2019-01-04T00:20:24.739Z,62.57
2019-01-04T00:23:12.419Z,63.14
2019-01-04T00:25:59.587Z,62.93
2019-01-04T00:28:47.137Z,62.54
2019-01-04T00:31:34.513Z,62.19
2019-01-04T00:34:21.672Z,62.08
2019-01-04T00:37:08.817Z,62.27
2019-01-04T00:39:56.147Z,62.10
2019-01-04T00:42:43.719Z,61.88
2019-01-04T00:45:30.861Z,61.73
2019-01-04T00:48:18.196Z,61.59
2019-01-04T00:51:05.599Z,61.66
2019-01-04T00:53:52.996Z,61.77
2019-01-04T00:56:46.296Z,61.66
2019-01-04T00:59:45.367Z,61.96
2019-01-04T01:02:38.793Z,61.78
2019-01-04T01:05:54.130Z,61.58
2019-01-04T01:08:44.427Z,61.93
2019-01-04T01:11:54.185Z,61.97
2019-01-04T01:14:53.352Z,61.92
2019-01-04T01:18:04.217Z,61.83
2019-01-04T01:21:26.051Z,62.09
2019-01-04T01:24:34.778Z,61.74
2019-01-04T01:27:44.078Z,61.68
2019-01-04T01:30:49.112Z,61.61
2019-01-04T01:33:44.766Z,61.42
2019-01-04T01:36:54.590Z,61.25
2019-01-04T01:40:01.173Z,61.21
2019-01-04T01:42:53.951Z,61.09
2019-01-04T01:46:15.951Z,61.02
2019-01-04T01:49:24.483Z,60.93
2019-01-04T01:52:17.543Z,60.81
2019-01-04T01:55:05.669Z,60.78
2019-01-04T01:57:53.818Z,60.74
2019-01-04T02:00:40.984Z,60.73
2019-01-04T02:03:28.149Z,60.74
2019-01-04T02:06:15.597Z,60.63
2019-01-04T02:09:07.223Z,60.59
2019-01-04T02:11:51.714Z,60.57
2019-01-04T02:14:38.586Z,60.53
2019-01-04T02:17:25.704Z,60.57
2019-01-04T02:20:13.137Z,60.61
2019-01-04T02:23:00.905Z,60.69
2019-01-04T02:25:48.328Z,60.73
2019-01-04T02:28:35.459Z,60.70
2019-01-04T02:31:23.049Z,60.74
2019-01-04T02:34:10.424Z,60.87
2019-01-04T02:36:57.569Z,60.97
2019-01-04T02:39:44.626Z,60.99
2019-01-04T02:42:31.772Z,60.96
2019-01-04T02:45:18.603Z,61.51
2019-01-04T02:48:05.798Z,61.46
2019-01-04T02:50:53.027Z,61.37
2019-01-04T02:53:39.915Z,61.29
2019-01-04T02:56:27.363Z,61.18
2019-01-04T02:59:14.149Z,61.07
2019-01-04T03:02:01.565Z,61.10
2019-01-04T03:04:48.526Z,61.12
2019-01-04T03:07:35.663Z,61.07
2019-01-04T03:10:23.093Z,61.33
2019-01-04T03:13:10.146Z,61.34
2019-01-04T03:15:57.215Z,61.24
2019-01-04T03:18:44.454Z,61.19
2019-01-04T03:21:32.016Z,61.32
2019-01-04T03:24:19.047Z,61.26
2019-01-04T03:27:05.956Z,61.20
2019-01-04T03:29:52.812Z,61.32
2019-01-04T03:32:39.967Z,61.45
2019-01-04T03:35:27.088Z,61.58
2019-01-04T03:38:14.462Z,61.59
2019-01-04T03:41:01.560Z,61.64
2019-01-04T03:43:48.730Z,61.62
2019-01-04T03:46:36.379Z,61.57
2019-01-04T03:49:23.435Z,61.59
2019-01-04T03:52:10.427Z,61.61
2019-01-04T03:54:57.316Z,61.49
2019-01-04T03:57:44.232Z,61.62
2019-01-04T04:00:31.458Z,61.58
2019-01-04T04:03:18.955Z,61.45
2019-01-04T04:06:06.348Z,61.38
2019-01-04T04:08:53.707Z,61.32
2019-01-04T04:11:40.873Z,61.40
2019-01-04T04:14:29.491Z,61.43
2019-01-04T04:17:16.559Z,61.60
2019-01-04T04:20:04.439Z,61.57
2019-01-04T04:22:51.349Z,61.61
2019-01-04T04:25:38.729Z,61.51
2019-01-04T04:28:26.141Z,61.48
2019-01-04T04:31:12.950Z,61.46
2019-01-04T04:34:00.508Z,61.48
2019-01-04T04:36:47.690Z,61.54
2019-01-04T04:39:35.413Z,61.56
2019-01-04T04:42:22.231Z,61.45
2019-01-04T04:45:09.392Z,61.59
2019-01-04T04:47:56.417Z,62.12
2019-01-04T04:50:43.238Z,61.88
2019-01-04T04:53:30.356Z,61.55
2019-01-04T04:56:17.134Z,61.45
2019-01-04T04:59:04.600Z,61.29
2019-01-04T05:01:51.828Z,61.20
2019-01-04T05:04:39.009Z,61.18
2019-01-04T05:07:26.289Z,61.20
2019-01-04T05:10:13.471Z,61.26
2019-01-04T05:13:00.643Z,61.33
2019-01-04T05:15:47.649Z,61.20
2019-01-04T05:18:34.765Z,61.31
2019-01-04T05:21:21.956Z,61.24
2019-01-04T05:24:09.091Z,61.33
2019-01-04T05:26:56.144Z,61.37
2019-01-04T05:29:43.395Z,61.14
2019-01-04T05:32:30.496Z,61.06
2019-01-04T05:35:17.668Z,61.09
2019-01-04T05:38:04.873Z,61.07
2019-01-04T05:40:52.169Z,61.18
2019-01-04T05:43:39.227Z,61.09
2019-01-04T05:46:26.620Z,61.16
2019-01-04T05:49:13.812Z,61.82
2019-01-04T05:52:00.855Z,61.73
2019-01-04T05:54:48.175Z,62.26
2019-01-04T05:57:35.645Z,62.33
2019-01-04T06:00:22.748Z,62.06
2019-01-04T06:03:10.011Z,61.81
2019-01-04T06:05:57.452Z,61.66
2019-01-04T06:08:44.588Z,61.70
2019-01-04T06:11:32.105Z,61.73
2019-01-04T06:14:19.493Z,61.70
2019-01-04T06:17:06.908Z,61.59
2019-01-04T06:19:54.174Z,61.89
2019-01-04T06:22:41.507Z,61.76
2019-01-04T06:25:28.916Z,61.90
2019-01-04T06:28:16.225Z,61.86
2019-01-04T06:31:03.439Z,61.87
2019-01-04T06:33:50.546Z,62.30
2019-01-04T06:36:37.977Z,62.37
2019-01-04T06:39:24.998Z,62.68
2019-01-04T06:42:12.477Z,62.71
2019-01-04T06:44:59.595Z,63.13
2019-01-04T06:47:47.122Z,62.69
2019-01-04T06:50:34.347Z,62.70
2019-01-04T06:53:21.287Z,62.80
2019-01-04T06:56:08.594Z,63.31
2019-01-04T06:58:55.956Z,64.31
2019-01-04T07:01:43.290Z,63.67
2019-01-04T07:04:30.967Z,62.85
2019-01-04T07:07:18.384Z,62.86
2019-01-04T07:10:06.812Z,62.44
2019-01-04T07:12:53.961Z,62.79
2019-01-04T07:15:41.639Z,62.56
2019-01-04T07:18:28.547Z,62.41
2019-01-04T07:21:15.777Z,62.10
2019-01-04T07:24:02.986Z,62.10
2019-01-04T07:26:49.902Z,62.43
2019-01-04T07:29:36.998Z,62.05
2019-01-04T07:32:24.448Z,62.43
2019-01-04T07:35:11.885Z,62.68
2019-01-04T07:37:59.304Z,63.34
2019-01-04T07:40:46.486Z,62.88
2019-01-04T07:43:33.437Z,62.33
2019-01-04T07:46:20.482Z,62.17
2019-01-04T07:49:07.826Z,62.28
2019-01-04T07:51:54.739Z,62.21
2019-01-04T07:54:42.124Z,62.71
2019-01-04T07:57:29.555Z,62.99
2019-01-04T08:00:16.701Z,63.62
2019-01-04T08:03:04.843Z,65.09
2019-01-04T08:05:51.953Z,64.50
2019-01-04T08:08:38.994Z,63.72
2019-01-04T08:11:26.317Z,63.54
2019-01-04T08:14:13.794Z,63.86
2019-01-04T08:17:01.138Z,63.62
2019-01-04T08:19:48.304Z,63.51
2019-01-04T08:22:35.745Z,63.91
2019-01-04T08:25:23.033Z,63.49
2019-01-04T08:28:09.920Z,63.23
2019-01-04T08:30:57.086Z,64.33
2019-01-04T08:33:44.240Z,63.80
2019-01-04T08:36:31.370Z,64.32
2019-01-04T08:39:18.949Z,64.00
2019-01-04T08:42:06.388Z,63.94
2019-01-04T08:44:53.423Z,63.63
2019-01-04T08:47:41.016Z,64.25
2019-01-04T08:50:28.196Z,64.49
2019-01-04T08:53:15.319Z,64.54
2019-01-04T08:56:04.647Z,65.37
2019-01-04T08:58:51.669Z,65.49
2019-01-04T09:01:38.999Z,65.80
2019-01-04T09:04:26.394Z,65.18
2019-01-04T09:07:13.252Z,64.68
2019-01-04T09:10:00.732Z,65.24
2019-01-04T09:12:47.874Z,64.43
2019-01-04T09:15:35.176Z,65.83
2019-01-04T09:18:22.101Z,65.83
2019-01-04T09:21:09.385Z,65.38
2019-01-04T09:23:56.632Z,66.53
2019-01-04T09:26:43.548Z,65.40
2019-01-04T09:29:30.742Z,64.40
2019-01-04T09:32:18.081Z,63.84
2019-01-04T09:35:05.662Z,64.37
2019-01-04T09:37:53.190Z,63.78
2019-01-04T09:40:40.707Z,63.10
2019-01-04T09:43:28.025Z,63.20
2019-01-04T09:46:15.399Z,63.36
2019-01-04T09:49:02.567Z,63.98
2019-01-04T09:51:49.718Z,63.83
2019-01-04T09:54:36.811Z,64.40
2019-01-04T09:57:24.015Z,64.16
2019-01-04T10:00:11.320Z,63.51
2019-01-04T10:02:58.787Z,63.04
2019-01-04T10:05:45.837Z,62.24
2019-01-04T10:08:33.169Z,61.84
2019-01-04T10:11:20.497Z,62.52
2019-01-04T10:14:07.968Z,62.60
2019-01-04T10:16:55.460Z,63.53
2019-01-04T10:19:42.372Z,62.85
2019-01-04T10:22:29.723Z,62.76
2019-01-04T10:25:17.483Z,62.82
2019-01-04T10:28:04.866Z,62.58
2019-01-04T10:30:51.860Z,62.15
2019-01-04T10:33:39.464Z,61.58
2019-01-04T10:36:26.636Z,61.14
2019-01-04T10:39:13.459Z,60.67
2019-01-04T10:42:00.832Z,60.91
2019-01-04T10:44:47.978Z,61.06
2019-01-04T10:47:35.060Z,61.39
2019-01-04T10:50:23.148Z,61.14
2019-01-04T10:53:10.097Z,62.08
2019-01-04T10:55:57.165Z,62.00
2019-01-04T10:58:43.936Z,61.01
2019-01-04T11:01:31.277Z,60.95
2019-01-04T11:04:18.328Z,61.54
2019-01-04T11:07:05.279Z,61.69
2019-01-04T11:09:52.804Z,61.37
2019-01-04T11:12:39.971Z,61.65
2019-01-04T11:15:26.769Z,62.21
2019-01-04T11:18:13.938Z,62.85
2019-01-04T11:21:01.124Z,63.64
2019-01-04T11:24:10.677Z,63.64
2019-01-04T11:26:57.960Z,63.74
2019-01-04T11:29:51.103Z,64.21
2019-01-04T11:32:44.198Z,64.60
2019-01-04T11:35:35.249Z,66.03
2019-01-04T11:38:34.513Z,64.79
2019-01-04T11:41:43.340Z,65.03
2019-01-04T11:44:45.237Z,64.78
2019-01-04T11:47:58.955Z,64.65
2019-01-04T11:50:54.457Z,64.68
2019-01-04T11:53:42.409Z,64.44
2019-01-04T11:56:29.357Z,64.34
2019-01-04T11:59:16.922Z,65.22
2019-01-04T12:02:04.151Z,65.42
2019-01-04T12:04:51.318Z,65.73
2019-01-04T12:07:38.539Z,65.40
2019-01-04T12:10:25.842Z,66.34
2019-01-04T12:13:12.874Z,66.31
2019-01-04T12:16:00.398Z,66.56
2019-01-04T12:18:47.599Z,66.37
2019-01-04T12:21:34.667Z,66.71
2019-01-04T12:24:22.062Z,66.63
2019-01-04T12:27:09.467Z,67.07
2019-01-04T12:29:56.695Z,67.89
2019-01-04T12:32:43.489Z,68.42
2019-01-04T12:35:30.553Z,68.29
2019-01-04T12:38:17.952Z,69.08
2019-01-04T12:41:05.353Z,68.76
2019-01-04T12:43:52.770Z,69.93
2019-01-04T12:46:39.958Z,69.53
2019-01-04T12:49:27.523Z,68.75
2019-01-04T12:52:14.893Z,68.62
2019-01-04T12:55:02.279Z,67.84
2019-01-04T12:57:49.347Z,67.88
2019-01-04T13:00:36.461Z,68.43
2019-01-04T13:03:23.836Z,68.01
2019-01-04T13:06:11.115Z,67.91
2019-01-04T13:08:58.164Z,68.89
2019-01-04T13:11:45.382Z,68.06
2019-01-04T13:14:32.753Z,68.46
2019-01-04T13:17:20.020Z,68.34
2019-01-04T13:20:07.292Z,69.23
2019-01-04T13:22:54.114Z,69.41
2019-01-04T13:25:41.581Z,68.07
2019-01-04T13:28:29.189Z,69.08
2019-01-04T13:31:16.583Z,68.51
2019-01-04T13:34:04.140Z,69.19
2019-01-04T13:36:51.339Z,68.11
2019-01-04T13:39:38.587Z,67.98
2019-01-04T13:42:25.794Z,67.38
2019-01-04T13:45:12.876Z,67.55
2019-01-04T13:47:59.886Z,68.70
2019-01-04T13:50:46.805Z,69.54
2019-01-04T13:53:33.576Z,68.56
2019-01-04T13:56:20.898Z,67.43
2019-01-04T13:59:07.933Z,67.28
2019-01-04T14:01:55.448Z,67.54
2019-01-04T14:04:42.486Z,67.63
2019-01-04T14:07:29.600Z,67.49
2019-01-04T14:10:16.564Z,66.56
2019-01-04T14:13:09.280Z,66.66
2019-01-04T14:15:52.608Z,66.49
2019-01-04T14:18:39.703Z,67.60
2019-01-04T14:21:27.194Z,68.62
2019-01-04T14:24:13.950Z,67.93
2019-01-04T14:27:01.092Z,67.21
2019-01-04T14:29:48.508Z,66.71
2019-01-04T14:32:35.862Z,66.60
2019-01-04T14:35:23.055Z,67.37
2019-01-04T14:38:10.431Z,66.82
2019-01-04T14:40:57.581Z,67.12
2019-01-04T14:43:45.004Z,67.58
2019-01-04T14:46:32.082Z,67.07
2019-01-04T14:49:19.129Z,66.56
2019-01-04T14:52:06.306Z,67.07
2019-01-04T14:54:53.336Z,66.38
2019-01-04T14:57:40.797Z,66.35
2019-01-04T15:00:27.853Z,67.02
2019-01-04T15:03:15.128Z,66.68
2019-01-04T15:06:02.290Z,67.42
2019-01-04T15:08:49.266Z,66.96
2019-01-04T15:11:36.588Z,68.46
2019-01-04T15:14:23.394Z,67.38
2019-01-04T15:17:10.816Z,66.67
2019-01-04T15:19:58.040Z,66.32
2019-01-04T15:22:45.195Z,66.91
2019-01-04T15:25:32.358Z,66.48
2019-01-04T15:28:19.477Z,66.73
2019-01-04T15:31:06.719Z,66.69
2019-01-04T15:33:53.606Z,66.39
2019-01-04T15:36:40.986Z,67.54
2019-01-04T15:39:28.525Z,68.65
2019-01-04T15:42:15.647Z,67.85
2019-01-04T15:45:03.190Z,66.75
2019-01-04T15:47:50.529Z,68.33
2019-01-04T15:50:37.380Z,67.44
2019-01-04T15:53:24.836Z,67.60
2019-01-04T15:56:12.185Z,69.52
2019-01-04T15:58:59.205Z,68.72
2019-01-04T16:01:46.270Z,69.17
2019-01-04T16:04:33.165Z,68.50
2019-01-04T16:07:20.147Z,68.26
2019-01-04T16:10:08.591Z,68.42
2019-01-04T16:12:55.607Z,67.80
2019-01-04T16:15:42.696Z,67.46
2019-01-04T16:18:29.506Z,67.59
2019-01-04T16:21:16.542Z,67.29
2019-01-04T16:24:04.031Z,66.30
2019-01-04T16:26:51.124Z,66.21
2019-01-04T16:29:38.041Z,66.10
2019-01-04T16:32:25.438Z,65.84
2019-01-04T16:35:12.534Z,66.03
2019-01-04T16:38:00.056Z,65.78
2019-01-04T16:40:47.459Z,65.86
2019-01-04T16:43:34.707Z,66.27
2019-01-04T16:46:21.825Z,66.53
2019-01-04T16:49:09.104Z,66.37
2019-01-04T16:51:56.099Z,66.43
2019-01-04T16:54:43.037Z,66.77
2019-01-04T16:57:31.827Z,66.35
2019-01-04T17:00:19.195Z,66.13
2019-01-04T17:03:06.199Z,66.39
2019-01-04T17:05:53.312Z,66.44
2019-01-04T17:08:40.389Z,66.24
2019-01-04T17:11:27.730Z,67.18
2019-01-04T17:14:14.886Z,67.14
2019-01-04T17:17:01.913Z,66.53
2019-01-04T17:19:49.395Z,67.68
2019-01-04T17:22:36.254Z,68.00
2019-01-04T17:25:23.226Z,67.59
2019-01-04T17:28:10.414Z,67.40
2019-01-04T17:30:57.722Z,67.78
2019-01-04T17:33:44.705Z,67.60
2019-01-04T17:36:31.842Z,67.66
2019-01-04T17:39:19.088Z,68.37
2019-01-04T17:42:05.998Z,68.52
2019-01-04T17:44:53.159Z,68.27
2019-01-04T17:47:40.255Z,68.16
2019-01-04T17:50:27.282Z,68.68
2019-01-04T17:53:14.527Z,67.92
2019-01-04T17:56:01.488Z,67.32
2019-01-04T17:58:48.573Z,67.42
2019-01-04T18:01:35.938Z,68.86
2019-01-04T18:04:23.178Z,68.59
2019-01-04T18:07:10.410Z,67.96
2019-01-04T18:09:57.734Z,68.63
2019-01-04T18:12:45.117Z,67.82
2019-01-04T18:15:32.316Z,68.69
2019-01-04T18:18:19.394Z,68.45
2019-01-04T18:21:06.548Z,68.13
2019-01-04T18:23:53.799Z,67.83
2019-01-04T18:26:40.772Z,67.97
2019-01-04T18:29:28.228Z,68.26
2019-01-04T18:32:15.583Z,67.86
2019-01-04T18:35:02.756Z,68.24
2019-01-04T18:37:50.088Z,68.72
2019-01-04T18:40:37.234Z,68.88
2019-01-04T18:43:24.413Z,68.48
2019-01-04T18:46:11.798Z,68.08
2019-01-04T18:48:58.692Z,68.47
2019-01-04T18:51:46.200Z,68.05
2019-01-04T18:54:33.290Z,67.90
2019-01-04T18:57:20.334Z,67.59
2019-01-04T19:00:10.268Z,67.51
2019-01-04T19:02:57.447Z,68.05
2019-01-04T19:05:44.883Z,67.68
2019-01-04T19:08:32.325Z,67.51
2019-01-04T19:11:19.369Z,67.81
2019-01-04T19:14:06.548Z,67.82
2019-01-04T19:16:53.628Z,67.72
2019-01-04T19:19:40.715Z,67.54
2019-01-04T19:22:27.648Z,67.61
2019-01-04T19:25:14.861Z,67.70
2019-01-04T19:28:02.022Z,68.11
2019-01-04T19:30:48.840Z,67.94
2019-01-04T19:33:35.907Z,67.94
2019-01-04T19:36:23.254Z,67.75
2019-01-04T19:39:10.605Z,67.64
2019-01-04T19:41:57.857Z,67.70
2019-01-04T19:44:44.936Z,67.77
2019-01-04T19:47:32.088Z,68.31
2019-01-04T19:50:21.308Z,67.95
2019-01-04T19:53:08.352Z,67.84
2019-01-04T19:55:55.768Z,67.87
2019-01-04T19:58:42.876Z,67.92
2019-01-04T20:01:30.144Z,68.04
2019-01-04T20:04:17.459Z,68.13
2019-01-04T20:07:34.647Z,68.28
2019-01-04T20:10:59.373Z,68.04
2019-01-04T20:14:10.061Z,67.89
2019-01-04T20:17:15.041Z,68.17
2019-01-04T20:20:06.630Z,67.88
2019-01-04T20:22:58.169Z,68.13
2019-01-04T20:25:46.775Z,68.16
2019-01-04T20:28:44.595Z,68.90
2019-01-04T20:31:48.248Z,68.79
2019-01-04T20:34:36.859Z,68.35
2019-01-04T20:37:28.330Z,68.21
2019-01-04T20:40:16.922Z,68.14
2019-01-04T20:43:17.933Z,68.06
2019-01-04T20:46:24.996Z,67.59
2019-01-04T20:49:26.550Z,68.02
2019-01-04T20:52:18.152Z,68.02
2019-01-04T20:55:22.376Z,67.87
2019-01-04T20:58:26.855Z,67.68
2019-01-04T21:01:21.568Z,68.01
2019-01-04T21:04:10.416Z,67.91
2019-01-04T21:07:02.254Z,67.91
2019-01-04T21:09:54.305Z,68.02
2019-01-04T21:12:58.931Z,68.41
2019-01-04T21:15:56.306Z,68.46
2019-01-04T21:19:01.070Z,68.35
2019-01-04T21:22:05.738Z,68.61
2019-01-04T21:24:54.517Z,68.48
2019-01-04T21:27:58.397Z,68.72
2019-01-04T21:30:58.814Z,68.73
2019-01-04T21:33:59.442Z,68.61
2019-01-04T21:37:03.812Z,68.53
2019-01-04T21:40:04.513Z,68.32
2019-01-04T21:43:11.460Z,68.85
2019-01-04T21:46:05.926Z,69.76
2019-01-04T21:49:10.262Z,70.67
2019-01-04T21:51:59.157Z,69.91
2019-01-04T21:55:04.235Z,70.87
2019-01-04T21:58:05.000Z,71.55
2019-01-04T22:01:02.954Z,71.15
2019-01-04T22:04:03.407Z,71.46
2019-01-04T22:07:10.044Z,70.89
2019-01-04T22:10:10.276Z,69.99
2019-01-04T22:13:13.962Z,70.10
2019-01-04T22:16:05.568Z,70.68
2019-01-04T22:19:09.037Z,70.35
2019-01-04T22:22:13.846Z,70.38
2019-01-04T22:25:18.598Z,70.00
2019-01-04T22:28:16.060Z,69.94
2019-01-04T22:31:21.009Z,69.94
2019-01-04T22:34:24.616Z,71.51
2019-01-04T22:37:16.440Z,71.06
2019-01-04T22:40:20.467Z,71.10
2019-01-04T22:43:20.996Z,70.43
2019-01-04T22:46:22.175Z,70.53
2019-01-04T22:49:25.797Z,70.59
2019-01-04T22:52:29.902Z,71.85
2019-01-04T22:55:30.404Z,70.85
2019-01-04T22:58:21.579Z,70.19
2019-01-04T23:01:13.182Z,70.66
2019-01-04T23:04:18.631Z,70.56
2019-01-04T23:07:25.610Z,71.50
2019-01-04T23:10:14.807Z,70.72
2019-01-04T23:13:07.316Z,71.45
2019-01-04T23:16:11.008Z,71.49
2019-01-04T23:19:11.732Z,70.90
2019-01-04T23:22:10.015Z,70.56
2019-01-04T23:25:14.914Z,70.75
2019-01-04T23:28:03.721Z,70.62
2019-01-04T23:30:52.826Z,70.90
2019-01-04T23:33:58.003Z,70.66
2019-01-04T23:36:46.827Z,71.18
2019-01-04T23:39:35.315Z,70.74
2019-01-04T23:42:38.857Z,72.32
2019-01-04T23:45:34.050Z,71.77
2019-01-04T23:48:39.396Z,71.05
2019-01-04T23:51:42.961Z,71.83
2019-01-04T23:54:37.520Z,72.35
2019-01-04T23:57:44.456Z,73.12
